Time;durP1;ratioP1;P1;durP2;ratioP2;P2;SDS_P1;SDS_P2;PMS_P1;PMS_P2;Temp;Humidity;BMP_temperature;BMP_pressure;BME280_temperature;BME280_humidity;BME280_pressure;Samples;Min_cycle;Max_cycle;Signal;HPM_P1;HPM_P2
2022/10/26 00:00:13;;;;;;;7.13;5.73;;;;;;;10.62;100.00;101627.81;5003339;28;20189;-75
2022/10/26 00:02:38;;;;;;;12.73;6.00;;;;;;;10.70;100.00;101660.94;5001271;28;20193;-74
2022/10/26 00:05:05;;;;;;;6.13;5.43;;;;;;;10.52;100.00;101627.22;5011149;23;20652;-72
2022/10/26 00:07:30;;;;;;;7.80;5.63;;;;;;;10.68;100.00;101671.06;5000008;28;20280;-73
2022/10/26 00:09:55;;;;;;;7.90;5.97;;;;;;;10.48;100.00;101641.19;4996956;28;20873;-73
2022/10/26 00:12:21;;;;;;;11.10;6.30;;;;;;;10.42;100.00;101618.59;5001060;28;20196;-72
2022/10/26 00:14:46;;;;;;;9.30;6.40;;;;;;;10.61;100.00;101661.00;4999064;28;20196;-72
2022/10/26 00:17:11;;;;;;;8.80;5.60;;;;;;;10.02;100.00;101577.59;5004984;28;20185;-73
2022/10/26 00:19:37;;;;;;;6.17;5.40;;;;;;;10.48;100.00;101647.38;5005558;28;20211;-73
2022/10/26 00:22:02;;;;;;;9.50;6.17;;;;;;;10.51;100.00;101644.34;5005688;28;20603;-73
2022/10/26 00:24:28;;;;;;;8.50;6.17;;;;;;;10.52;100.00;101653.22;5007727;28;20212;-73
2022/10/26 00:26:53;;;;;;;7.43;5.60;;;;;;;10.44;100.00;101655.94;5005469;28;20189;-72
2022/10/26 00:29:28;;;;;;;10.90;6.00;;;;;;;10.23;100.00;101632.41;5003019;28;20211;-73
2022/10/26 00:31:53;;;;;;;6.50;5.90;;;;;;;10.00;100.00;101600.22;4998689;28;20223;-73
2022/10/26 00:34:19;;;;;;;8.83;6.27;;;;;;;10.49;100.00;101696.47;5002924;28;20860;-72
2022/10/26 00:36:44;;;;;;;6.40;5.40;;;;;;;9.09;100.00;101481.16;5002969;28;25071;-72
2022/10/26 00:39:12;;;;;;;10.47;5.77;;;;;;;9.94;100.00;101604.44;5001833;28;25087;-72
2022/10/26 00:41:37;;;;;;;8.60;6.40;;;;;;;10.23;100.00;101678.81;5001400;28;25126;-72
2022/10/26 00:44:41;;;;;;;7.67;5.30;;;;;;;10.38;100.00;101673.56;5003345;28;25103;-71
2022/10/26 00:47:11;;;;;;;9.23;6.17;;;;;;;10.36;100.00;101673.78;5001219;28;20685;-73
2022/10/26 00:49:37;;;;;;;5.73;5.23;;;;;;;10.00;100.00;101609.09;5002931;28;20789;-73
2022/10/26 00:52:03;;;;;;;7.47;5.60;;;;;;;9.94;100.00;101609.78;5003297;28;20444;-72
2022/10/26 00:54:28;;;;;;;7.57;5.73;;;;;;;10.18;100.00;101643.66;5000524;28;20524;-72
2022/10/26 00:56:54;;;;;;;8.27;6.07;;;;;;;10.15;100.00;101638.66;5001544;28;21022;-73
2022/10/26 00:59:21;;;;;;;8.23;6.13;;;;;;;10.29;100.00;101659.38;4999932;28;20185;-72
2022/10/26 01:01:48;;;;;;;8.40;6.73;;;;;;;10.28;100.00;101659.56;5002928;28;20319;-72
2022/10/26 01:04:14;;;;;;;8.97;6.00;;;;;;;10.08;100.00;101621.63;5000626;28;20479;-73
2022/10/26 01:06:41;;;;;;;6.10;5.50;;;;;;;9.95;100.00;101601.59;5003146;28;20448;-73
2022/10/26 01:09:08;;;;;;;8.57;5.50;;;;;;;10.23;100.00;101661.91;5003464;28;20444;-72
2022/10/26 01:11:33;;;;;;;7.30;5.63;;;;;;;9.59;100.00;101571.78;5006318;28;20907;-73
2022/10/26 01:14:01;;;;;;;7.60;6.13;;;;;;;9.67;100.00;101554.84;5006187;28;20455;-72
2022/10/26 01:16:45;;;;;;;7.73;6.10;;;;;;;10.27;100.00;101641.78;5006264;28;20197;-73
2022/10/26 01:19:22;;;;;;;8.07;6.00;;;;;;;10.39;100.00;101637.72;5006385;28;20427;-73
2022/10/26 01:21:57;;;;;;;7.70;6.00;;;;;;;9.71;100.00;101565.03;5005287;28;20507;-73
2022/10/26 01:24:48;;;;;;;7.43;5.50;;;;;;;9.25;100.00;101479.22;5002400;28;20547;-73
2022/10/26 01:27:19;;;;;;;7.73;6.10;;;;;;;10.24;100.00;101626.03;5004274;28;20435;-73
2022/10/26 01:30:24;;;;;;;5.60;5.10;;;;;;;10.34;100.00;101630.19;5002051;28;20441;-73
2022/10/26 01:33:14;;;;;;;6.90;5.47;;;;;;;10.29;100.00;101623.69;4999900;28;20911;-73
2022/10/26 01:36:07;;;;;;;10.93;5.60;;;;;;;10.06;100.00;101578.91;5003282;28;20572;-73
2022/10/26 01:38:50;;;;;;;9.70;5.70;;;;;;;10.29;100.00;101619.16;4996356;28;20443;-72
2022/10/26 01:41:31;;;;;;;6.10;5.30;;;;;;;10.08;100.00;101587.59;4997441;28;20470;-72
2022/10/26 01:44:22;;;;;;;5.70;5.20;;;;;;;10.21;100.00;101623.72;5000469;28;20478;-72
2022/10/26 01:46:50;;;;;;;5.83;5.07;;;;;;;10.16;100.00;101622.41;5002920;28;20498;-72
2022/10/26 01:49:20;;;;;;;7.60;4.87;;;;;;;10.21;100.00;101624.53;5001224;28;20447;-72
2022/10/26 01:51:48;;;;;;;10.73;7.10;;;;;;;9.62;100.00;101539.28;5003489;28;21019;-73
2022/10/26 01:54:13;;;;;;;5.87;5.27;;;;;;;9.18;100.00;101470.22;4994621;28;20467;-72
2022/10/26 01:56:41;;;;;;;6.23;5.63;;;;;;;9.56;100.00;101531.97;4999833;28;21324;-72
2022/10/26 01:59:34;;;;;;;6.97;5.40;;;;;;;9.96;100.00;101616.66;4999643;28;20194;-72
2022/10/26 02:02:19;;;;;;;6.97;5.87;;;;;;;9.91;100.00;101594.06;4998344;28;20451;-73
2022/10/26 02:05:00;;;;;;;5.70;5.07;;;;;;;9.97;100.00;101604.09;4999178;28;20851;-72
2022/10/26 02:07:34;;;;;;;9.57;5.93;;;;;;;9.93;100.00;101603.59;5000849;28;20435;-72
2022/10/26 02:09:59;;;;;;;6.20;5.60;;;;;;;10.02;100.00;101606.25;4995986;28;20441;-72
2022/10/26 02:12:31;;;;;;;6.17;5.53;;;;;;;9.91;100.00;101610.16;4999880;28;20443;-72
2022/10/26 02:15:11;;;;;;;6.07;5.47;;;;;;;9.96;100.00;101605.09;5001793;28;20213;-73
2022/10/26 02:18:12;;;;;;;6.30;5.07;;;;;;;9.80;100.00;101563.13;4994565;28;20490;-73
2022/10/26 02:20:46;;;;;;;7.37;5.50;;;;;;;9.91;100.00;101596.75;4991855;28;20559;-73
2022/10/26 02:23:13;;;;;;;7.50;5.63;;;;;;;9.84;100.00;101575.19;4998932;28;20449;-73
2022/10/26 02:25:45;;;;;;;6.73;5.60;;;;;;;9.84;100.00;101577.03;4999769;28;20876;-71
2022/10/26 02:28:16;;;;;;;6.80;5.40;;;;;;;9.56;100.00;101531.97;4999991;28;20921;-71
2022/10/26 02:30:44;;;;;;;5.93;5.17;;;;;;;9.78;100.00;101553.59;5000574;28;21059;-71
2022/10/26 02:33:12;;;;;;;5.90;5.10;;;;;;;9.39;100.00;101495.56;4997481;28;20508;-71
2022/10/26 02:35:40;;;;;;;5.53;5.03;;;;;;;9.80;100.00;101559.63;4999664;28;20475;-71
2022/10/26 02:38:10;;;;;;;8.50;5.93;;;;;;;9.91;100.00;101576.13;4996658;28;20594;-71
2022/10/26 02:40:37;;;;;;;6.03;5.43;;;;;;;9.84;100.00;101577.88;4998478;28;20961;-71
2022/10/26 02:43:14;;;;;;;8.97;6.33;;;;;;;9.85;100.00;101567.97;4999153;28;20436;-71
2022/10/26 02:45:45;;;;;;;6.03;5.43;;;;;;;9.29;100.00;101461.00;5014679;28;20898;-70
2022/10/26 02:48:11;;;;;;;7.33;5.90;;;;;;;9.65;100.00;101538.13;4995411;28;20445;-70
2022/10/26 02:50:57;;;;;;;6.17;5.40;;;;;;;9.68;100.00;101527.88;4999906;28;20448;-72
2022/10/26 02:53:29;;;;;;;6.57;5.80;;;;;;;9.97;100.00;101566.56;4998485;28;20949;-72
2022/10/26 02:55:54;;;;;;;9.30;6.33;;;;;;;9.47;100.00;101487.50;4999727;28;20475;-72
2022/10/26 02:58:27;;;;;;;9.70;6.43;;;;;;;10.02;100.00;101566.03;4997916;28;20470;-72
2022/10/26 03:00:53;;;;;;;8.93;5.90;;;;;;;9.96;100.00;101557.69;5014927;28;22498;-71
2022/10/26 03:03:19;;;;;;;9.63;6.23;;;;;;;9.80;100.00;101554.28;4999721;28;20442;-72
2022/10/26 03:05:45;;;;;;;7.23;6.23;;;;;;;9.84;100.00;101555.59;5001642;28;20475;-72
2022/10/26 03:08:10;;;;;;;7.30;6.30;;;;;;;9.78;100.00;101554.47;4996430;28;20455;-72
2022/10/26 03:10:41;;;;;;;8.33;7.40;;;;;;;9.74;100.00;101551.28;4999707;28;20188;-72
2022/10/26 03:13:06;;;;;;;8.67;6.10;;;;;;;9.44;100.00;101507.41;4995190;28;20189;-72
2022/10/26 03:15:32;;;;;;;8.27;6.50;;;;;;;9.67;100.00;101523.53;4998317;28;20507;-72
2022/10/26 03:17:57;;;;;;;10.37;6.30;;;;;;;9.78;100.00;101524.13;4996257;28;20196;-72
2022/10/26 03:20:22;;;;;;;6.30;5.70;;;;;;;9.23;100.00;101462.53;4997618;28;20217;-72
2022/10/26 03:22:48;;;;;;;7.10;6.40;;;;;;;9.32;100.00;101499.97;4995403;28;20184;-72
2022/10/26 03:25:16;;;;;;;6.40;5.60;;;;;;;9.77;100.00;101566.16;4999467;28;20216;-72
2022/10/26 03:27:42;;;;;;;7.80;6.37;;;;;;;9.68;100.00;101565.38;4999710;28;20189;-72
2022/10/26 03:30:08;;;;;;;10.10;6.97;;;;;;;9.67;100.00;101566.41;4994043;28;20804;-72
2022/10/26 03:32:33;;;;;;;8.30;6.77;;;;;;;9.65;100.00;101544.31;4999392;28;20473;-72
2022/10/26 03:34:59;;;;;;;7.87;7.07;;;;;;;9.38;100.00;101507.28;4998645;28;20209;-72
2022/10/26 03:37:24;;;;;;;8.87;7.97;;;;;;;9.72;100.00;101558.69;4997620;28;20215;-72
2022/10/26 03:39:50;;;;;;;8.53;6.60;;;;;;;9.32;100.00;101502.66;5000071;28;20305;-71
2022/10/26 03:42:15;;;;;;;8.57;7.27;;;;;;;9.44;100.00;101520.81;4996073;28;20677;-71
2022/10/26 03:44:41;;;;;;;10.13;7.47;;;;;;;9.09;100.00;101462.41;5012586;28;20217;-71
2022/10/26 03:47:06;;;;;;;9.23;7.87;;;;;;;9.66;100.00;101551.34;4996846;28;20289;-72
2022/10/26 03:49:31;;;;;;;10.70;6.90;;;;;;;9.80;100.00;101554.28;4998910;28;20197;-72
2022/10/26 03:51:57;;;;;;;10.03;7.97;;;;;;;9.37;100.00;101506.44;5000490;28;20199;-72
2022/10/26 03:54:22;;;;;;;8.77;7.13;;;;;;;9.59;100.00;101530.78;4998036;28;20205;-72
2022/10/26 03:56:48;;;;;;;9.00;7.70;;;;;;;9.68;100.00;101553.84;4997630;28;20647;-72
2022/10/26 03:59:13;;;;;;;10.27;7.70;;;;;;;9.64;100.00;101542.66;4994628;28;20664;-72
2022/10/26 04:01:39;;;;;;;9.27;8.23;;;;;;;9.73;100.00;101543.44;4998277;28;20205;-72
2022/10/26 04:04:04;;;;;;;10.10;7.73;;;;;;;9.10;100.00;101445.34;4998179;28;20216;-72
2022/10/26 04:06:30;;;;;;;10.87;8.50;;;;;;;9.56;100.00;101525.78;4999673;28;20239;-72
2022/10/26 04:09:01;;;;;;;9.03;7.80;;;;;;;9.06;100.00;101442.19;4998846;28;20699;-72
2022/10/26 04:11:27;;;;;;;9.43;7.50;;;;;;;9.56;100.00;101523.09;4996552;28;20182;-72
2022/10/26 04:13:52;;;;;;;9.27;8.30;;;;;;;9.68;100.00;101538.59;4998149;28;20522;-72
2022/10/26 04:16:17;;;;;;;10.20;8.90;;;;;;;9.22;100.00;101474.22;5001356;28;20535;-72
2022/10/26 04:18:43;;;;;;;10.37;8.40;;;;;;;9.65;100.00;101538.94;4997812;28;20188;-72
2022/10/26 04:21:08;;;;;;;9.00;8.10;;;;;;;9.41;100.00;101541.75;4994364;28;20201;-72
2022/10/26 04:23:33;;;;;;;9.00;7.13;;;;;;;9.24;100.00;101482.09;5002235;28;20195;-72
2022/10/26 04:25:59;;;;;;;11.03;8.80;;;;;;;9.37;100.00;101541.25;4996328;28;20564;-72
2022/10/26 04:28:24;;;;;;;9.07;8.07;;;;;;;8.93;100.00;101453.44;5002821;28;20257;-72
2022/10/26 04:30:50;;;;;;;8.00;7.10;;;;;;;9.02;100.00;101489.00;5001154;28;20184;-72
2022/10/26 04:33:15;;;;;;;9.87;7.97;;;;;;;8.83;100.00;101471.53;4992724;28;20193;-72
2022/10/26 04:35:41;;;;;;;8.73;6.83;;;;;;;8.98;100.00;101511.78;5000161;28;20247;-72
2022/10/26 04:38:08;;;;;;;8.03;7.23;;;;;;;8.42;100.00;101419.97;5001556;28;20552;-72
2022/10/26 04:40:34;;;;;;;8.77;6.67;;;;;;;8.93;100.00;101503.44;4999289;28;20517;-72
2022/10/26 04:43:00;;;;;;;7.40;6.53;;;;;;;9.09;100.00;101522.13;4999057;28;20837;-72
2022/10/26 04:45:29;;;;;;;8.30;6.73;;;;;;;9.30;100.00;101545.63;4995032;28;20244;-71
2022/10/26 04:48:13;;;;;;;11.80;7.97;;;;;;;8.86;100.00;101484.56;4996996;28;25078;-72
2022/10/26 04:50:39;;;;;;;13.27;6.70;;;;;;;8.80;100.00;101477.22;4997521;28;20450;-72
2022/10/26 04:53:05;;;;;;;7.77;6.67;;;;;;;8.44;100.00;101418.81;4999619;28;25111;-72
2022/10/26 04:55:31;;;;;;;7.50;6.67;;;;;;;9.11;100.00;101513.91;5002850;28;25108;-72
2022/10/26 04:57:57;;;;;;;9.60;8.27;;;;;;;9.12;100.00;101520.94;5001863;28;20434;-72
2022/10/26 05:00:22;;;;;;;10.80;7.90;;;;;;;9.12;100.00;101521.78;5002499;28;20241;-72
2022/10/26 05:02:47;;;;;;;11.43;7.50;;;;;;;9.26;100.00;101533.63;5001816;28;20236;-72
2022/10/26 05:05:13;;;;;;;7.70;6.87;;;;;;;8.79;100.00;101463.03;5003649;28;25067;-72
2022/10/26 05:07:38;;;;;;;8.80;7.90;;;;;;;9.04;100.00;101495.03;5005235;28;25100;-72
2022/10/26 05:10:04;;;;;;;13.63;7.40;;;;;;;9.22;100.00;101530.44;5004980;28;20193;-72
2022/10/26 05:12:30;;;;;;;11.50;7.77;;;;;;;8.96;100.00;101511.94;5006840;28;20264;-72
2022/10/26 05:14:57;;;;;;;7.80;6.73;;;;;;;8.70;100.00;101429.25;5004976;28;21010;-72
2022/10/26 05:17:24;;;;;;;12.53;9.37;;;;;;;9.36;100.00;101538.75;5006739;28;25118;-72
2022/10/26 05:19:54;;;;;;;14.67;8.10;;;;;;;9.12;100.00;101489.66;5006186;28;25101;-72
2022/10/26 05:22:26;;;;;;;9.10;8.13;;;;;;;8.90;100.00;101460.97;5005844;28;25170;-72
2022/10/26 05:24:51;;;;;;;13.73;9.30;;;;;;;9.44;100.00;101528.00;5006104;28;20928;-72
2022/10/26 05:27:17;;;;;;;11.33;9.33;;;;;;;9.45;100.00;101532.34;5004787;28;20435;-72
2022/10/26 05:29:42;;;;;;;10.50;9.50;;;;;;;9.31;100.00;101498.28;5000191;28;20298;-72
2022/10/26 05:32:07;;;;;;;12.07;9.50;;;;;;;9.47;100.00;101531.16;5005268;28;25078;-72
2022/10/26 05:34:33;;;;;;;12.50;10.07;;;;;;;9.09;100.00;101484.66;5006845;28;20684;-72
2022/10/26 05:36:58;;;;;;;11.40;8.63;;;;;;;9.51;100.00;101532.47;5006773;28;20195;-71
2022/10/26 05:39:23;;;;;;;11.03;8.97;;;;;;;8.94;100.00;101462.28;5003603;28;20220;-71
2022/10/26 05:41:49;;;;;;;10.40;9.30;;;;;;;9.30;100.00;101524.22;5006281;28;20192;-72
2022/10/26 05:44:14;;;;;;;12.33;9.07;;;;;;;9.37;100.00;101519.81;5020453;28;20213;-72
2022/10/26 05:46:39;;;;;;;9.63;8.63;;;;;;;8.96;100.00;101457.59;5000939;28;20222;-72
2022/10/26 05:49:05;;;;;;;11.37;9.33;;;;;;;9.56;100.00;101547.22;5005188;28;25116;-72
2022/10/26 05:51:36;;;;;;;13.90;10.33;;;;;;;9.09;100.00;101471.28;5004711;28;20178;-73
2022/10/26 05:54:01;;;;;;;10.53;9.40;;;;;;;9.48;100.00;101537.34;5006280;28;20226;-73
2022/10/26 05:56:38;;;;;;;9.97;8.97;;;;;;;9.67;100.00;101542.28;5005580;28;20470;-72
2022/10/26 05:59:13;;;;;;;11.43;9.50;;;;;;;9.74;100.00;101545.91;5005334;28;20183;-72
2022/10/26 06:02:00;;;;;;;12.93;9.00;;;;;;;9.76;100.00;101547.59;5003274;28;25158;-72
2022/10/26 06:04:37;;;;;;;9.50;8.60;;;;;;;9.78;100.00;101553.59;5004765;28;20446;-72
2022/10/26 06:07:10;;;;;;;12.30;9.87;;;;;;;9.27;100.00;101468.34;5005778;28;25117;-72
2022/10/26 06:09:37;;;;;;;10.30;9.30;;;;;;;7.27;100.00;101166.44;5016767;22;21087;-85
2022/10/26 06:12:03;;;;;;;11.50;8.77;;;;;;;8.24;100.00;101345.31;5015052;28;20472;-85
2022/10/26 06:14:28;;;;;;;12.10;10.10;;;;;;;8.80;100.00;101450.47;5019610;28;20434;-85
2022/10/26 06:17:31;;;;;;;15.30;11.90;;;;;;;9.68;100.00;101562.69;5021824;28;20447;-87
2022/10/26 06:20:34;;;;;;;12.43;9.93;;;;;;;9.77;100.00;101568.84;5013562;28;25082;-87
2022/10/26 06:23:06;;;;;;;14.07;11.07;;;;;;;9.71;100.00;101564.19;5003104;28;20438;-88
2022/10/26 06:25:34;;;;;;;17.40;9.73;;;;;;;9.68;100.00;101568.06;5003773;28;25147;-85
2022/10/26 06:28:41;;;;;;;12.43;10.57;;;;;;;9.09;100.00;101441.00;5002893;28;20821;-88
2022/10/26 06:31:07;;;;;;;10.73;9.63;;;;;;;8.20;100.00;101296.72;4983775;28;25116;-86
2022/10/26 06:33:33;;;;;;;11.13;9.83;;;;;;;7.77;100.00;101256.09;4999157;28;20482;-86
2022/10/26 06:36:28;;;;;;;12.73;9.07;;;;;;;8.48;100.00;101334.59;4998136;28;25067;-86
2022/10/26 06:39:21;;;;;;;14.73;10.10;;;;;;;8.66;100.00;101379.81;4983771;28;20466;-86
2022/10/26 06:41:47;;;;;;;17.03;10.03;;;;;;;8.44;100.00;101346.63;5000946;28;20486;-82
2022/10/26 06:44:20;;;;;;;15.07;10.10;;;;;;;9.09;100.00;101412.41;5003771;28;20431;-85
2022/10/26 06:46:52;;;;;;;10.00;9.00;;;;;;;9.95;100.00;101552.50;4985139;28;20281;-86
2022/10/26 06:49:26;;;;;;;12.10;8.97;;;;;;;8.44;100.00;101287.81;5003620;28;20479;-87
2022/10/26 06:52:03;;;;;;;11.63;9.60;;;;;;;10.13;100.00;101571.00;5002725;28;20795;-86
2022/10/26 06:54:38;;;;;;;10.70;8.33;;;;;;;10.24;100.00;101559.00;5002401;28;20437;-86
2022/10/26 06:57:06;;;;;;;11.40;9.20;;;;;;;8.66;100.00;101314.81;5002395;28;20427;-85
2022/10/26 06:59:48;;;;;;;10.93;8.80;;;;;;;8.59;100.00;101298.59;4990247;28;20489;-86
2022/10/26 07:02:13;;;;;;;14.97;9.13;;;;;;;9.27;100.00;101391.53;5002096;28;20433;-86
2022/10/26 07:04:40;;;;;;;16.90;8.50;;;;;;;8.26;100.00;101221.22;5000438;28;20443;-85
2022/10/26 07:07:05;;;;;;;10.30;9.20;;;;;;;9.74;100.00;101473.59;4990989;28;20213;-86
2022/10/26 07:09:31;;;;;;;11.20;9.20;;;;;;;8.55;100.00;101260.69;5004603;28;20499;-86
2022/10/26 07:11:56;;;;;;;11.17;9.23;;;;;;;8.90;100.00;101340.59;5006189;28;20661;-87
2022/10/26 07:14:22;;;;;;;15.10;8.90;;;;;;;8.46;100.00;101274.28;5023964;28;25069;-86
2022/10/26 07:16:47;;;;;;;13.20;9.60;;;;;;;8.18;100.00;101247.97;5029647;28;20280;-87
2022/10/26 07:19:12;;;;;;;10.27;9.00;;;;;;;8.83;100.00;101284.28;5024628;28;20577;-86
2022/10/26 07:21:38;;;;;;;10.80;8.80;;;;;;;8.31;100.00;101196.66;5000990;28;20208;-87
2022/10/26 07:24:03;;;;;;;10.20;8.50;;;;;;;9.10;100.00;101357.84;5002286;28;20247;-86
2022/10/26 07:26:29;;;;;;;8.80;7.90;;;;;;;8.97;100.00;101352.28;5003069;28;20191;-87
2022/10/26 07:28:54;;;;;;;10.60;8.77;;;;;;;8.32;100.00;101184.94;5000700;28;25151;-85
2022/10/26 07:31:20;;;;;;;9.03;8.10;;;;;;;8.90;100.00;101301.28;5002426;28;20247;-86
2022/10/26 07:33:45;;;;;;;9.57;8.50;;;;;;;9.96;100.00;101437.09;5002531;28;25070;-86
2022/10/26 07:36:11;;;;;;;9.57;7.83;;;;;;;9.80;100.00;101391.66;5001806;28;20197;-86
2022/10/26 07:38:37;;;;;;;8.63;7.77;;;;;;;9.49;100.00;101312.25;4984131;28;20190;-86
2022/10/26 07:41:03;;;;;;;8.00;7.20;;;;;;;10.24;100.00;101473.22;5001767;28;20542;-86
2022/10/26 07:43:29;;;;;;;11.47;8.33;;;;;;;8.74;100.00;101175.69;5001195;28;25140;-86
2022/10/26 07:45:54;;;;;;;14.60;8.20;;;;;;;10.21;100.00;101420.78;5000974;28;25208;-86
2022/10/26 07:48:20;;;;;;;10.53;8.40;;;;;;;8.90;100.00;101185.41;5000485;28;20200;-86
2022/10/26 07:50:45;;;;;;;10.97;7.93;;;;;;;8.96;100.00;101182.03;5001938;28;20231;-85
2022/10/26 07:53:10;;;;;;;8.67;7.80;;;;;;;9.60;100.00;101302.94;5000098;28;25077;-85
2022/10/26 07:55:36;;;;;;;11.20;7.80;;;;;;;9.73;100.00;101311.19;5001473;28;25079;-86
2022/10/26 07:58:01;;;;;;;14.80;7.67;;;;;;;8.66;100.00;101168.56;4985089;28;20257;-86
2022/10/26 08:00:28;;;;;;;15.30;8.73;;;;;;;9.65;100.00;101335.38;5000232;28;25088;-84
2022/10/26 08:02:54;;;;;;;9.23;7.63;;;;;;;9.49;100.00;101320.28;5000803;28;25137;-86
2022/10/26 08:05:19;;;;;;;10.20;7.90;;;;;;;9.76;100.00;101368.13;5002743;28;20482;-86
2022/10/26 08:07:45;;;;;;;13.20;8.27;;;;;;;9.70;100.00;101361.63;5000035;28;20634;-82
2022/10/26 08:10:11;;;;;;;10.03;8.20;;;;;;;8.85;100.00;101214.53;5001272;28;25076;-87
2022/10/26 08:12:37;;;;;;;11.17;8.30;;;;;;;9.01;100.00;101219.78;5000260;28;20563;-85
2022/10/26 08:15:03;;;;;;;8.80;7.80;;;;;;;9.15;100.00;101219.00;5001636;28;20456;-85
2022/10/26 08:17:28;;;;;;;12.83;8.50;;;;;;;10.09;100.00;101396.28;5000982;28;25115;-86
2022/10/26 08:19:54;;;;;;;9.93;8.77;;;;;;;9.92;100.00;101359.91;5001959;28;20889;-86
2022/10/26 08:22:19;;;;;;;10.20;7.10;;;;;;;10.17;100.00;101385.47;5002271;28;20203;-85
2022/10/26 08:24:45;;;;;;;9.73;7.90;;;;;;;10.18;100.00;101330.84;4998922;28;20204;-86
2022/10/26 08:27:13;;;;;;;8.53;7.17;;;;;;;9.35;100.00;101186.38;4999214;28;20290;-86
2022/10/26 08:29:38;;;;;;;12.90;7.43;;;;;;;11.84;100.00;101595.31;5001674;28;20494;-85
2022/10/26 08:32:04;;;;;;;8.67;7.60;;;;;;;10.14;100.00;101307.28;5001740;28;20424;-86
2022/10/26 08:34:29;;;;;;;12.47;6.67;;;;;;;9.60;100.00;101182.41;5000046;28;20190;-85
2022/10/26 08:36:55;;;;;;;8.73;6.80;;;;;;;9.75;100.00;101227.97;4987944;28;20184;-86
2022/10/26 08:39:20;;;;;;;8.90;6.87;;;;;;;9.54;100.00;101167.09;5001027;28;25094;-86
2022/10/26 08:41:52;;;;;;;13.50;8.03;;;;;;;10.23;100.00;101267.81;5005359;28;20210;-84
2022/10/26 08:44:47;;;;;;;6.37;5.77;;;;;;;11.29;100.00;101403.28;4992188;28;20215;-85
2022/10/26 08:47:19;;;;;;;10.70;6.77;;;;;;;10.32;100.00;101175.53;5005226;28;20450;-85
2022/10/26 08:49:58;;;;;;;7.70;6.80;;;;;;;10.56;100.00;101179.75;4986446;28;20480;-86
2022/10/26 08:52:34;;;;;;;7.03;6.30;;;;;;;10.77;100.00;101173.56;5004154;28;20478;-86
2022/10/26 08:55:02;;;;;;;8.67;6.90;;;;;;;11.42;100.00;101312.09;5005090;28;20424;-86
2022/10/26 08:57:34;;;;;;;6.70;6.00;;;;;;;11.64;100.00;101349.72;5005070;28;25096;-85
2022/10/26 09:00:05;;;;;;;8.43;6.13;;;;;;;10.68;100.00;101180.06;5005167;28;20481;-85
2022/10/26 09:02:30;;;;;;;8.90;5.60;;;;;;;11.25;100.00;101257.84;5005578;28;20471;-84
2022/10/26 09:05:00;;;;;;;7.33;5.60;;;;;;;11.63;100.00;101369.53;5004692;28;20471;-85
2022/10/26 09:07:41;;;;;;;11.70;6.70;;;;;;;12.83;100.00;101533.56;5004795;28;20200;-85
2022/10/26 09:10:26;;;;;;;8.57;5.73;;;;;;;11.34;100.00;101290.75;4999975;28;20463;-86
2022/10/26 09:13:10;;;;;;;7.60;5.50;;;;;;;13.16;100.00;101524.00;4989457;28;20458;-86
2022/10/26 09:15:35;;;;;;;8.77;6.50;;;;;;;13.15;100.00;101525.06;5004741;28;25106;-85
2022/10/26 09:18:26;;;;;;;7.07;5.53;;;;;;;11.91;100.00;101299.72;4988916;28;20800;-84
2022/10/26 09:21:16;;;;;;;9.60;5.23;;;;;;;13.39;100.00;101511.09;5003588;28;20718;-83
2022/10/26 09:24:15;;;;;;;20.83;6.03;;;;;;;12.25;100.00;101306.97;5003755;28;20432;-84
2022/10/26 09:26:47;;;;;;;9.50;5.80;;;;;;;12.85;100.00;101398.75;4996113;28;20444;-84
2022/10/26 09:29:13;;;;;;;6.27;5.30;;;;;;;12.42;100.00;101285.94;5002956;28;20456;-84
2022/10/26 09:31:43;;;;;;;10.67;5.77;;;;;;;12.94;100.00;101383.28;5004531;28;20861;-83
2022/10/26 09:34:37;;;;;;;9.00;6.60;;;;;;;13.04;100.00;101405.25;5003233;28;20202;-85
2022/10/26 09:37:14;;;;;;;5.83;4.97;;;;;;;12.28;100.00;101311.13;4993152;28;20441;-87
2022/10/26 09:40:15;;;;;;;5.87;5.20;;;;;;;12.61;100.00;101368.63;4983871;28;20446;-85
2022/10/26 09:42:49;;;;;;;7.90;5.40;;;;;;;13.67;100.00;101507.47;5003706;28;20426;-85
2022/10/26 09:45:27;;;;;;;6.73;5.73;;;;;;;12.29;100.00;101334.28;5001828;28;20428;-84
2022/10/26 09:47:57;;;;;;;6.40;4.57;;;;;;;11.55;100.00;101214.69;5003350;28;20428;-84
2022/10/26 09:50:32;;;;;;;9.00;5.00;;;;;;;11.53;100.00;101155.75;5001388;28;20452;-85
2022/10/26 09:52:57;;;;;;;6.93;4.90;;;;;;;12.11;100.00;101256.81;4985794;28;20427;-83
2022/10/26 09:55:23;;;;;;;11.40;5.93;;;;;;;12.65;100.00;101318.75;4986880;28;20444;-84
2022/10/26 09:57:52;;;;;;;5.17;4.20;;;;;;;13.10;100.00;101304.78;5003083;28;20224;-82
2022/10/26 10:00:20;;;;;;;11.13;5.77;;;;;;;13.31;100.00;101376.59;5003004;28;20686;-83
2022/10/26 10:02:56;;;;;;;15.60;5.80;;;;;;;12.54;100.00;101249.34;4987465;28;20444;-79
2022/10/26 10:05:34;;;;;;;15.17;5.23;;;;;;;13.82;100.00;101384.09;4986346;28;20443;-81
2022/10/26 10:08:35;;;;;;;7.03;5.10;;;;;;;13.66;100.00;101395.31;4999230;28;20472;-80
2022/10/26 10:11:06;;;;;;;7.07;5.30;;;;;;;12.48;100.00;101192.84;4964033;28;20637;-82
2022/10/26 10:13:35;;;;;;;5.90;4.80;;;;;;;12.74;100.00;101259.38;4976409;28;20441;-80
2022/10/26 10:16:07;;;;;;;8.80;5.17;;;;;;;13.96;100.00;101418.13;5002701;28;20432;-81
2022/10/26 10:18:34;;;;;;;5.30;4.80;;;;;;;13.54;100.00;101333.91;4984355;28;20439;-78
2022/10/26 10:21:00;;;;;;;6.83;4.60;;;;;;;13.23;100.00;101199.78;4987019;28;20525;-81
2022/10/26 10:23:31;;;;;;;5.80;4.37;;;;;;;13.71;100.00;101280.44;5003083;28;20979;-80
2022/10/26 10:26:05;;;;;;;9.30;4.20;;;;;;;13.95;100.00;101240.34;5003053;28;20520;-79
2022/10/26 10:28:32;;;;;;;4.80;3.50;;;;;;;13.47;100.00;101187.56;5001422;28;20234;-81
2022/10/26 10:31:02;;;;;;;6.30;3.20;;;;;;;14.66;100.00;101312.38;5001255;28;21422;-81
2022/10/26 10:33:44;;;;;;;5.37;3.00;;;;;;;16.02;100.00;101495.84;5001598;28;20432;-79
2022/10/26 10:36:14;;;;;;;6.73;3.17;;;;;;;14.19;100.00;101234.25;5001097;28;20436;-80
2022/10/26 10:38:42;;;;;;;7.37;2.90;;;;;;;14.20;100.00;101217.03;5002960;28;20417;-81
2022/10/26 10:41:35;;;;;;;5.17;2.67;;;;;;;15.17;100.00;101362.00;5001125;28;21248;-80
2022/10/26 10:44:00;;;;;;;6.30;3.07;;;;;;;16.35;100.00;101496.66;4989597;28;20986;-80
2022/10/26 10:46:27;;;;;;;4.23;2.60;;;;;;;14.69;100.00;101202.09;4996261;28;20578;-78
2022/10/26 10:49:01;;;;;;;9.90;3.50;;;;;;;15.35;100.00;101305.34;4986320;28;20185;-80
2022/10/26 10:51:27;;;;;;;7.47;3.40;;;;;;;16.25;100.00;101376.16;4986446;28;20539;-80
2022/10/26 10:53:56;;;;;;;8.10;4.40;;;;;;;14.58;100.00;101146.09;4999656;28;20428;-80
2022/10/26 10:56:39;;;;;;;7.37;2.20;;;;;;;16.01;100.00;101379.72;5002200;28;20451;-79
2022/10/26 10:59:04;;;;;;;2.60;2.03;;;;;;;17.01;100.00;101481.66;5000932;28;20424;-78
2022/10/26 11:01:44;;;;;;;5.83;2.57;;;;;;;17.04;100.00;101503.72;5000919;28;20472;-79
2022/10/26 11:04:32;;;;;;;5.20;2.13;;;;;;;16.97;100.00;101450.66;4989590;28;20220;-80
2022/10/26 11:07:02;;;;;;;4.00;1.77;;;;;;;15.30;100.00;101187.09;4999361;28;20467;-82
2022/10/26 11:09:31;;;;;;;6.90;2.23;;;;;;;17.44;100.00;101486.97;4985953;28;20563;-81
2022/10/26 11:12:08;;;;;;;4.20;2.00;;;;;;;15.89;100.00;101235.44;5002401;28;20507;-78
2022/10/26 11:14:39;;;;;;;4.43;2.30;;;;;;;17.70;100.00;101466.78;4988585;28;20427;-81
2022/10/26 11:17:23;;;;;;;3.30;2.20;;;;;;;17.38;100.00;101423.63;5002840;28;20862;-79
2022/10/26 11:20:11;;;;;;;4.50;1.87;;;;;;;16.32;100.00;101245.34;5002621;28;20452;-82
2022/10/26 11:22:43;;;;;;;4.23;2.20;;;;;;;17.66;100.00;101478.34;5011190;28;20463;-77
2022/10/26 11:25:19;;;;;;;3.97;1.90;;;;;;;16.42;100.00;101395.34;5026113;28;20484;-82
2022/10/26 11:27:56;;;;;;;8.00;2.27;;;;;;;15.47;100.00;101189.22;5025580;28;20674;-80
2022/10/26 11:30:26;;;;;;;5.20;1.97;;;;;;;15.30;100.00;101202.44;5005195;28;20440;-81
2022/10/26 11:33:08;;;;;;;4.03;1.80;;;;;;;16.77;100.00;101462.53;5002999;28;20448;-80
2022/10/26 11:36:00;;;;;;;4.63;2.20;;;;;;;15.75;100.00;101261.78;5001572;28;20456;-79